FBKE

Kasane Airport

Kasane, Botswana
TAF FBKE 241200Z 2415/2424 11004KT CAVOK
Issued Valid From Valid To
Sep-24 @ 12:00 UTC
(8 hours ago)
Sep-24 @ 15:00 UTC
(5 hours ago)
Sep-25 @ 00:00 UTC
(in 4 hours)
Sep-24 @ 15:00 to Sep-25 @ 00:00
TAF FBKE 241200Z 2415/2424 11004KT CAVOK
Wind Visibility Clouds Conditions
110° at 4 knots 10,000+ meters
  • No significant clouds
TAF FBKE 241200Z 2415/2424 11004KT CAVOK
Issued Sep-24 @ 12:00 UTC
(8 hours ago)
Valid From Sep-24 @ 15:00 UTC
(5 hours ago)
Valid To Sep-25 @ 00:00 UTC
(in 4 hours)
Sep-24 @ 15:00 - Sep-25 @ 00:00
Wind Visibility
110° at 4 knots 10,000+ meters
Clouds
  • No significant clouds
Conditions